Time;durP1;ratioP1;P1;durP2;ratioP2;P2;SDS_P1;SDS_P2;PMS_P1;PMS_P2;Temp;Humidity;BMP_temperature;BMP_pressure;BME280_temperature;BME280_humidity;BME280_pressure;Samples;Min_cycle;Max_cycle;Signal;HPM_P1;HPM_P2
2022/10/10 00:04:10;;;;;;;38.83;27.55;;;;;;;10.43;93.64;98404.88;10418423;28;20060;-58
2022/10/10 00:09:09;;;;;;;40.80;28.27;;;;;;;10.38;93.35;98419.53;10417454;28;20028;-58
2022/10/10 00:14:08;;;;;;;39.25;29.42;;;;;;;10.28;93.93;98412.47;10417582;28;20040;-58
2022/10/10 00:19:07;;;;;;;37.22;27.52;;;;;;;10.26;93.99;98419.38;10417148;28;20052;-58
2022/10/10 00:24:06;;;;;;;43.38;30.08;;;;;;;10.19;94.70;98415.84;10416982;28;20068;-58
2022/10/10 00:29:05;;;;;;;;;;;;;;;10.15;94.65;98414.94;10416688;28;20472;-58
2022/10/10 00:34:04;;;;;;;35.45;26.40;;;;;;;10.07;94.14;98418.31;10416769;28;20378;-58
2022/10/10 00:39:03;;;;;;;35.63;25.85;;;;;;;10.08;94.56;98417.47;10416513;28;20056;-58
2022/10/10 00:44:07;;;;;;;36.45;25.45;;;;;;;10.06;94.80;98414.84;10416648;28;20064;-58
2022/10/10 00:49:17;;;;;;;39.47;27.27;;;;;;;10.04;94.72;98415.69;10416003;28;20071;-58
2022/10/10 00:54:18;;;;;;;38.17;25.65;;;;;;;10.00;94.88;98427.72;10415626;28;20507;-58
2022/10/10 00:59:19;;;;;;;36.38;26.95;;;;;;;9.97;94.64;98425.09;10415916;28;20063;-58
2022/10/10 01:04:33;;;;;;;35.63;27.35;;;;;;;9.85;95.35;98419.78;10415793;28;20079;-58
2022/10/10 01:09:34;;;;;;;34.25;26.75;;;;;;;9.82;95.31;98418.03;10415128;28;20482;-58
2022/10/10 01:14:36;;;;;;;32.80;24.90;;;;;;;9.78;95.38;98436.97;10415593;28;20059;-58
2022/10/10 01:20:10;;;;;;;36.47;25.45;;;;;;;9.75;95.78;98430.03;10414450;28;20083;-58
2022/10/10 01:25:35;;;;;;;36.50;26.20;;;;;;;9.68;95.29;98432.53;10361468;28;20095;-58
2022/10/10 01:30:34;;;;;;;37.88;25.95;;;;;;;9.63;95.33;98434.16;10373185;28;20069;-58
2022/10/10 01:35:39;;;;;;;34.00;25.98;;;;;;;9.60;95.28;98444.50;10373678;28;20323;-58
2022/10/10 01:41:04;;;;;;;36.45;26.75;;;;;;;9.54;95.59;98437.50;10371687;28;20064;-58
2022/10/10 01:46:15;;;;;;;37.72;27.02;;;;;;;9.51;95.24;98438.34;10372424;28;20144;-58
2022/10/10 01:51:17;;;;;;;37.03;26.90;;;;;;;9.47;94.98;98448.63;10372725;28;20064;-58
2022/10/10 01:56:42;;;;;;;38.60;27.52;;;;;;;9.40;95.31;98442.50;10372108;28;20071;-58
2022/10/10 02:01:52;;;;;;;39.45;27.63;;;;;;;9.34;95.36;98442.38;10372234;28;20068;-58
2022/10/10 02:07:00;;;;;;;39.25;28.70;;;;;;;9.30;95.75;98444.09;10372487;28;20430;-58
2022/10/10 02:12:01;;;;;;;44.88;29.95;;;;;;;9.25;95.95;98443.09;10370932;28;20072;-58
2022/10/10 02:17:02;;;;;;;42.20;31.15;;;;;;;9.20;95.65;98431.78;10371589;28;20083;-58
2022/10/10 02:22:01;;;;;;;46.67;31.77;;;;;;;9.16;96.23;98437.78;10383919;28;20080;-58
2022/10/10 02:27:31;;;;;;;51.95;33.03;;;;;;;9.13;96.11;98442.91;10412269;28;20463;-58
2022/10/10 02:32:44;;;;;;;42.47;30.42;;;;;;;9.09;96.35;98452.34;10412003;28;20068;-58
2022/10/10 02:37:44;;;;;;;41.42;29.48;;;;;;;9.05;96.11;98462.63;10411772;28;20067;-58
2022/10/10 02:42:45;;;;;;;47.40;30.05;;;;;;;9.02;96.47;98459.97;10412274;28;20070;-58
2022/10/10 02:47:44;;;;;;;44.78;28.83;;;;;;;8.83;97.13;98459.69;10411169;28;20090;-58
2022/10/10 02:52:43;;;;;;;39.28;27.10;;;;;;;8.81;97.01;98466.56;10411448;28;20074;-58
2022/10/10 02:57:42;;;;;;;40.13;26.40;;;;;;;8.71;97.44;98462.03;10411753;28;20031;-58
2022/10/10 03:02:41;;;;;;;38.92;26.40;;;;;;;8.67;97.63;98468.03;10411911;28;20072;-58
2022/10/10 03:07:40;;;;;;;36.40;24.83;;;;;;;8.66;97.73;98471.44;10411382;28;20044;-58
2022/10/10 03:12:39;;;;;;;38.25;26.80;;;;;;;8.61;98.16;98463.59;10411647;28;20037;-58
2022/10/10 03:17:39;;;;;;;38.78;29.05;;;;;;;8.38;99.59;98475.22;10410798;28;20045;-58
2022/10/10 03:22:38;;;;;;;37.60;27.55;;;;;;;8.35;99.42;98470.00;10411034;28;20075;-58
2022/10/10 03:27:37;;;;;;;48.75;29.25;;;;;;;8.24;99.91;98472.38;10410864;28;20170;-58
2022/10/10 03:32:36;;;;;;;42.83;29.30;;;;;;;8.26;99.87;98483.63;10410847;28;20032;-58
2022/10/10 03:37:35;;;;;;;40.33;28.58;;;;;;;8.20;99.11;98476.63;10410791;28;20032;-58
2022/10/10 03:42:33;;;;;;;40.40;29.05;;;;;;;8.17;99.67;98486.88;10411201;28;20135;-58
2022/10/10 03:47:32;;;;;;;39.97;27.48;;;;;;;8.19;99.29;98484.34;10410150;28;20043;-58
2022/10/10 03:52:31;;;;;;;38.13;26.65;;;;;;;8.23;99.39;98480.97;10410808;28;20112;-58
2022/10/10 03:57:30;;;;;;;35.88;27.00;;;;;;;8.27;98.99;98487.94;10410500;28;20029;-58
2022/10/10 04:02:29;;;;;;;46.70;31.08;;;;;;;8.29;99.06;98487.16;10410264;28;20403;-58
2022/10/10 04:07:28;;;;;;;52.03;32.15;;;;;;;8.29;99.18;98491.44;10415845;28;20050;-58
2022/10/10 04:12:27;;;;;;;63.53;32.38;;;;;;;8.27;98.54;98481.06;10418094;28;20032;-58
2022/10/10 04:17:26;;;;;;;50.55;32.90;;;;;;;8.29;98.56;98492.31;10417366;28;20127;-58
2022/10/10 04:22:25;;;;;;;56.28;35.10;;;;;;;8.27;98.74;98494.00;10416674;28;20500;-58
2022/10/10 04:27:24;;;;;;;58.08;34.13;;;;;;;8.24;98.86;98500.81;10417297;28;20574;-58
2022/10/10 04:32:23;;;;;;;66.22;38.60;;;;;;;8.11;99.79;98486.78;10381198;28;20067;-58
2022/10/10 04:37:22;;;;;;;58.70;40.70;;;;;;;7.91;99.86;98507.03;10375713;28;20029;-58
2022/10/10 04:42:21;;;;;;;49.55;32.92;;;;;;;7.82;99.98;98496.50;10414273;28;20047;-58
2022/10/10 04:47:21;;;;;;;44.70;29.45;;;;;;;7.68;99.05;98496.19;10399228;28;20060;-58
2022/10/10 04:52:20;;;;;;;41.22;27.98;;;;;;;7.63;98.50;98515.88;10372997;28;20075;-58
2022/10/10 04:57:19;;;;;;;39.03;27.02;;;;;;;7.52;98.57;98519.91;10373304;28;20029;-58
2022/10/10 05:02:18;;;;;;;37.60;27.23;;;;;;;7.46;98.36;98520.66;10373119;28;20073;-58
2022/10/10 05:07:16;;;;;;;41.42;30.60;;;;;;;7.41;98.57;98527.44;10379504;28;20028;-58
2022/10/10 05:12:15;;;;;;;36.35;27.60;;;;;;;7.37;99.61;98529.00;10402752;28;20126;-58
2022/10/10 05:17:14;;;;;;;40.30;28.67;;;;;;;7.40;99.58;98525.66;10395381;28;20068;-58
2022/10/10 05:22:14;;;;;;;42.63;29.25;;;;;;;7.63;99.51;98534.81;10375227;28;20535;-58
2022/10/10 05:27:13;;;;;;;39.97;30.45;;;;;;;7.86;99.70;98539.66;10377241;28;20499;-58
2022/10/10 05:32:12;;;;;;;41.90;29.80;;;;;;;8.05;100.00;98541.78;10392021;28;20526;-58
2022/10/10 05:37:11;;;;;;;58.47;38.38;;;;;;;8.24;99.83;98539.59;10395358;28;20056;-58
2022/10/10 05:42:12;;;;;;;65.95;42.28;;;;;;;8.36;100.00;98539.84;10389089;28;20068;-58
2022/10/10 05:47:11;;;;;;;76.22;52.22;;;;;;;8.45;99.31;98540.03;10413222;28;20106;-55
2022/10/10 05:52:10;;;;;;;89.00;59.33;;;;;;;8.60;99.26;98538.59;10416110;28;20644;-58
2022/10/10 05:57:09;;;;;;;83.43;55.38;;;;;;;8.78;99.59;98548.41;10409916;28;20041;-58
2022/10/10 06:02:08;;;;;;;76.20;52.50;;;;;;;8.95;99.74;98547.03;10415705;28;20395;-58
2022/10/10 06:07:08;;;;;;;85.28;57.45;;;;;;;9.17;99.60;98537.91;10383165;28;20041;-58
2022/10/10 06:12:07;;;;;;;95.65;65.70;;;;;;;9.38;100.00;98539.16;10374143;28;20174;-58
2022/10/10 06:17:06;;;;;;;85.40;59.20;;;;;;;9.64;99.39;98545.63;10375858;28;20163;-58
2022/10/10 06:22:05;;;;;;;69.10;50.55;;;;;;;9.87;99.36;98552.88;10394835;28;20032;-58
2022/10/10 06:27:04;;;;;;;71.80;51.88;;;;;;;10.10;98.93;98554.06;10411312;28;20469;-59
2022/10/10 06:32:03;;;;;;;66.38;47.72;;;;;;;10.28;99.41;98550.84;10411960;28;20040;-58
2022/10/10 06:37:03;;;;;;;60.85;44.47;;;;;;;10.47;98.94;98546.78;10411620;28;20127;-58
2022/10/10 06:42:02;;;;;;;57.80;44.78;;;;;;;10.69;98.80;98547.88;10399252;28;20411;-58
2022/10/10 06:47:01;;;;;;;61.97;46.10;;;;;;;10.96;98.25;98549.94;10415015;28;20533;-58
2022/10/10 06:52:00;;;;;;;53.47;43.60;;;;;;;11.27;97.46;98555.44;10378252;28;20079;-58
2022/10/10 06:56:59;;;;;;;45.55;36.40;;;;;;;11.55;96.89;98551.34;10414465;28;20028;-58
2022/10/10 07:01:59;;;;;;;41.88;35.65;;;;;;;11.73;96.27;98554.91;10414293;28;20111;-58
2022/10/10 07:06:58;;;;;;;44.53;34.25;;;;;;;11.80;95.09;98556.69;10403419;28;20071;-58
2022/10/10 07:11:56;;;;;;;34.83;30.55;;;;;;;11.87;93.97;98553.28;10406409;28;20039;-58
2022/10/10 07:16:56;;;;;;;31.48;26.30;;;;;;;11.88;93.77;98558.50;10408427;28;20041;-58
2022/10/10 07:21:54;;;;;;;30.63;25.17;;;;;;;11.79;93.13;98496.03;10375541;28;20076;-58
2022/10/10 07:26:55;;;;;;;29.38;24.83;;;;;;;12.28;92.16;98550.97;10379001;28;20033;-58
2022/10/10 07:31:53;;;;;;;26.50;23.15;;;;;;;12.52;91.06;98552.78;10374089;28;20067;-58
2022/10/10 07:36:52;;;;;;;29.38;20.70;;;;;;;12.83;89.63;98555.50;10373115;28;20029;-58
2022/10/10 07:41:51;;;;;;;21.42;18.48;;;;;;;13.06;88.64;98544.28;10378517;28;20021;-59
2022/10/10 07:46:50;;;;;;;24.10;20.33;;;;;;;13.30;87.67;98535.59;10380610;28;20087;-58
2022/10/10 07:51:49;;;;;;;20.70;18.27;;;;;;;13.55;86.98;98537.38;10386061;28;20044;-58
2022/10/10 07:56:48;;;;;;;19.73;17.63;;;;;;;13.72;85.96;98541.72;10381284;28;20033;-58
2022/10/10 08:01:48;;;;;;;21.25;17.83;;;;;;;13.99;84.41;98541.69;10406866;28;20789;-59
2022/10/10 08:06:47;;;;;;;21.83;17.23;;;;;;;14.16;84.01;98522.50;10419903;28;20064;-58
2022/10/10 08:11:46;;;;;;;22.40;18.38;;;;;;;14.58;82.79;98536.25;10420487;28;20082;-58
2022/10/10 08:16:45;;;;;;;;;;;;;;;14.83;80.90;98530.06;10414971;28;20041;-59
2022/10/10 08:21:44;;;;;;;18.20;15.25;;;;;;;15.15;80.16;98534.22;10397457;28;20404;-59
2022/10/10 08:26:42;;;;;;;;;;;;;;;15.55;79.03;98527.81;10411909;28;20488;-59
2022/10/10 08:31:41;;;;;;;20.00;14.65;;;;;;;16.04;78.27;98515.19;10389954;28;20318;-59
2022/10/10 08:36:40;;;;;;;;;;;;;;;16.39;74.77;98513.88;10389295;28;20032;-59
2022/10/10 08:41:52;;;;;;;22.10;14.23;;;;;;;16.59;73.18;98520.63;10380917;28;20607;-59
2022/10/10 08:46:57;;;;;;;17.92;13.10;;;;;;;16.80;72.76;98494.13;10377756;28;20084;-59
2022/10/10 08:52:18;;;;;;;17.25;13.85;;;;;;;17.26;71.41;98509.22;10400449;28;20064;-59
2022/10/10 08:57:28;;;;;;;16.85;13.55;;;;;;;17.60;67.29;98502.53;10394080;28;20071;-59
2022/10/10 09:02:37;;;;;;;19.52;14.10;;;;;;;17.74;66.28;98511.03;10413657;28;20686;-59
2022/10/10 09:08:00;;;;;;;17.77;12.48;;;;;;;17.80;64.53;98515.31;10375765;28;20076;-59
2022/10/10 09:13:16;;;;;;;14.18;12.40;;;;;;;17.95;63.06;98520.31;10374693;28;20534;-59
2022/10/10 09:18:28;;;;;;;13.43;11.55;;;;;;;18.16;62.45;98519.91;10375247;28;20508;-59
2022/10/10 09:23:38;;;;;;;12.65;10.63;;;;;;;18.48;61.85;98522.78;10379267;28;20588;-59
2022/10/10 09:28:52;;;;;;;17.40;13.38;;;;;;;18.81;60.30;98529.13;10408448;28;20459;-59
2022/10/10 09:34:04;;;;;;;16.77;12.95;;;;;;;18.97;59.83;98522.63;10407980;28;20102;-59
2022/10/10 09:39:19;;;;;;;14.55;10.60;;;;;;;19.32;58.09;98526.22;10411435;28;20055;-59
2022/10/10 09:44:20;;;;;;;15.90;10.65;;;;;;;19.32;57.71;98530.59;10415308;28;20060;-59
2022/10/10 09:49:20;;;;;;;14.60;11.40;;;;;;;19.50;58.34;98534.56;10415251;28;20063;-59
2022/10/10 09:54:20;;;;;;;18.00;10.50;;;;;;;19.91;58.81;98523.00;10415454;28;20517;-59
2022/10/10 09:59:38;;;;;;;15.52;11.98;;;;;;;20.20;56.71;98519.56;10414657;28;20064;-59
2022/10/10 10:04:37;;;;;;;14.10;10.23;;;;;;;20.44;55.48;98522.44;10412972;28;20515;-59
2022/10/10 10:09:36;;;;;;;11.32;9.65;;;;;;;20.63;53.12;98517.50;10382741;28;20491;-59
2022/10/10 10:14:37;;;;;;;14.20;9.52;;;;;;;20.35;52.82;98504.22;10373094;28;20060;-59
2022/10/10 10:19:39;;;;;;;11.63;10.43;;;;;;;20.44;53.59;98504.00;10371864;28;20637;-59
2022/10/10 10:24:38;;;;;;;14.07;9.88;;;;;;;20.85;54.58;98501.91;10372831;28;20072;-59
2022/10/10 10:29:37;;;;;;;10.40;9.18;;;;;;;21.14;52.82;98501.84;10372397;28;20029;-59
2022/10/10 10:34:48;;;;;;;10.90;9.30;;;;;;;21.36;51.96;98488.00;10372797;28;20087;-59
2022/10/10 10:40:11;;;;;;;11.65;9.68;;;;;;;21.50;53.34;98483.13;10372032;28;20063;-59
2022/10/10 10:45:15;;;;;;;13.18;9.10;;;;;;;21.45;49.98;98490.34;10408510;28;20483;-59
2022/10/10 10:50:26;;;;;;;11.68;8.13;;;;;;;21.39;50.04;98487.03;10413996;28;20472;-59
2022/10/10 10:55:37;;;;;;;10.43;9.15;;;;;;;21.55;50.88;98478.56;10413757;28;20071;-59
2022/10/10 11:00:48;;;;;;;13.52;9.93;;;;;;;21.66;50.17;98472.03;10412947;28;20492;-59
2022/10/10 11:06:05;;;;;;;9.65;8.57;;;;;;;21.73;49.90;98463.84;10411901;28;20075;-59
2022/10/10 11:11:25;;;;;;;11.77;8.75;;;;;;;21.88;49.16;98464.22;10405492;28;20072;-60
2022/10/10 11:16:44;;;;;;;11.35;9.85;;;;;;;21.88;48.19;98457.16;10421534;28;20490;-59
2022/10/10 11:21:51;;;;;;;13.88;9.38;;;;;;;21.95;48.72;98463.94;10424274;28;20079;-59
2022/10/10 11:26:54;;;;;;;15.02;10.07;;;;;;;;;;10424336;28;20398;-59
2022/10/10 11:32:06;;;;;;;14.65;10.95;;;;;;;21.96;50.10;98449.81;10425760;28;20082;-59
2022/10/10 11:37:15;;;;;;;12.63;8.80;;;;;;;22.07;47.35;98440.69;10425625;28;20056;-59
2022/10/10 11:42:34;;;;;;;13.13;10.05;;;;;;;21.93;47.89;98428.78;10422055;28;20106;-59
2022/10/10 11:48:10;;;;;;;13.75;9.27;;;;;;;21.80;47.48;98416.91;10422377;28;20063;-59
2022/10/10 11:53:47;;;;;;;13.20;9.02;;;;;;;21.86;47.32;98416.72;10422695;28;20064;-59
2022/10/10 11:58:59;;;;;;;14.52;11.35;;;;;;;21.76;47.38;98431.19;10416242;28;20064;-59
2022/10/10 12:03:58;;;;;;;13.82;9.98;;;;;;;21.80;47.15;98427.50;10425408;28;20063;-59
2022/10/10 12:09:14;;;;;;;11.40;9.15;;;;;;;21.71;47.03;98425.19;10424248;28;20086;-59
2022/10/10 12:14:16;;;;;;;11.10;8.50;;;;;;;21.60;47.24;98414.16;10424090;28;20071;-59
2022/10/10 12:19:19;;;;;;;12.18;8.80;;;;;;;21.53;47.43;98408.22;10425200;28;20090;-59
2022/10/10 12:24:19;;;;;;;11.13;8.65;;;;;;;21.55;47.84;98399.31;10424372;28;20068;-59
2022/10/10 12:29:39;;;;;;;9.65;8.27;;;;;;;21.61;47.97;98395.59;10419036;28;20064;-59
2022/10/10 12:34:40;;;;;;;11.10;8.73;;;;;;;21.71;47.96;98399.66;10418493;28;20076;-59
2022/10/10 12:40:05;;;;;;;11.73;8.55;;;;;;;21.82;48.49;98395.75;10416366;28;20609;-59
2022/10/10 12:45:28;;;;;;;15.93;10.50;;;;;;;21.76;47.28;98394.19;10417952;28;20515;-59
2022/10/10 12:50:39;;;;;;;14.75;10.43;;;;;;;21.48;48.94;98391.69;10417820;28;20386;-59
2022/10/10 12:55:45;;;;;;;14.40;11.35;;;;;;;20.94;51.56;98377.63;10418099;28;20063;-59
2022/10/10 13:00:46;;;;;;;14.45;10.10;;;;;;;20.57;52.35;98397.25;10415809;28;20113;-59
2022/10/10 13:05:47;;;;;;;11.57;10.10;;;;;;;20.43;53.12;98386.28;10417320;28;20451;-59
2022/10/10 13:11:05;;;;;;;11.85;10.02;;;;;;;20.37;53.39;98381.16;10417829;28;20074;-59
2022/10/10 13:16:12;;;;;;;11.27;9.43;;;;;;;20.32;53.82;98368.13;10416487;28;20080;-59
2022/10/10 13:21:16;;;;;;;12.13;10.40;;;;;;;20.32;53.73;98377.81;10416442;28;20066;-59
2022/10/10 13:26:22;;;;;;;12.05;9.57;;;;;;;20.26;53.71;98385.00;10416133;28;20459;-59
2022/10/10 13:31:24;;;;;;;15.52;10.60;;;;;;;20.12;54.21;98375.75;10416048;28;20063;-59
2022/10/10 13:36:27;;;;;;;17.83;10.85;;;;;;;20.20;54.60;98374.63;10414769;28;20378;-59
2022/10/10 13:41:27;;;;;;;13.95;10.30;;;;;;;20.12;54.55;98383.66;10415541;28;20070;-59
2022/10/10 13:46:31;;;;;;;13.90;11.70;;;;;;;19.95;54.56;98373.63;10415145;28;20072;-59
2022/10/10 13:51:45;;;;;;;13.50;10.82;;;;;;;19.92;54.95;98389.53;10415615;28;20067;-59
2022/10/10 13:56:44;;;;;;;12.50;10.20;;;;;;;19.93;55.60;98386.84;10414961;28;20060;-59
2022/10/10 14:01:47;;;;;;;13.20;11.13;;;;;;;19.99;55.26;98380.53;10414941;28;20109;-59
2022/10/10 14:07:10;;;;;;;12.40;10.43;;;;;;;19.87;55.26;98387.88;10414778;28;20060;-59
2022/10/10 14:12:29;;;;;;;14.90;10.30;;;;;;;19.64;55.68;98390.28;10414370;28;20074;-59
2022/10/10 14:17:28;;;;;;;16.23;10.65;;;;;;;19.64;56.14;98391.16;10414414;28;20076;-59
2022/10/10 14:22:27;;;;;;;15.13;12.52;;;;;;;19.53;56.33;98387.91;10414135;28;20089;-59
2022/10/10 14:27:26;;;;;;;14.10;11.23;;;;;;;19.44;56.51;98383.78;10413728;28;20017;-59
2022/10/10 14:32:25;;;;;;;16.25;11.43;;;;;;;19.50;56.96;98392.41;10413973;28;20067;-59
2022/10/10 14:37:27;;;;;;;15.45;12.38;;;;;;;19.43;56.61;98392.56;10413740;28;20106;-59
2022/10/10 14:42:26;;;;;;;15.77;11.82;;;;;;;19.47;57.22;98381.97;10414037;28;20064;-59
2022/10/10 14:47:25;;;;;;;19.10;12.93;;;;;;;19.49;57.36;98388.91;10412691;28;20029;-59
2022/10/10 14:52:24;;;;;;;17.35;13.57;;;;;;;19.33;57.51;98384.97;10413393;28;20035;-59
2022/10/10 14:57:23;;;;;;;18.48;13.30;;;;;;;19.12;58.01;98386.38;10411203;28;20064;-59
2022/10/10 15:02:22;;;;;;;16.83;13.55;;;;;;;19.00;58.57;98379.66;10413270;28;20028;-59
2022/10/10 15:07:21;;;;;;;19.05;13.57;;;;;;;18.93;58.89;98378.09;10404282;28;20480;-59
2022/10/10 15:12:20;;;;;;;16.38;13.35;;;;;;;18.87;59.23;98371.19;10369266;28;20623;-59
2022/10/10 15:17:19;;;;;;;24.88;16.38;;;;;;;18.86;59.84;98382.63;10385647;28;20076;-58
2022/10/10 15:22:18;;;;;;;19.73;14.18;;;;;;;18.85;60.34;98382.66;10411966;28;20037;-58
2022/10/10 15:27:17;;;;;;;16.38;13.43;;;;;;;18.74;61.22;98382.94;10412049;28;20064;-58
2022/10/10 15:32:16;;;;;;;17.70;13.30;;;;;;;18.53;61.88;98365.88;10408505;28;20048;-58
2022/10/10 15:37:15;;;;;;;19.25;13.23;;;;;;;18.44;61.79;98382.69;10371438;28;20031;-58
2022/10/10 15:42:14;;;;;;;17.85;14.70;;;;;;;18.26;62.72;98383.09;10410506;28;20090;-58
2022/10/10 15:47:17;;;;;;;30.20;15.68;;;;;;;18.14;62.82;98395.59;10411827;28;20413;-58
2022/10/10 15:52:17;;;;;;;24.65;15.15;;;;;;;17.95;63.15;98384.63;10410786;28;20060;-58
2022/10/10 15:57:17;;;;;;;24.80;15.40;;;;;;;17.86;63.96;98386.56;10411387;28;20071;-58
2022/10/10 16:02:17;;;;;;;21.73;16.75;;;;;;;17.70;64.58;98394.72;10416038;28;20504;-58
2022/10/10 16:07:16;;;;;;;26.27;19.30;;;;;;;17.58;65.14;98400.19;10419227;28;20468;-58
2022/10/10 16:12:15;;;;;;;29.30;19.80;;;;;;;17.46;66.27;98408.31;10399395;28;20512;-58
2022/10/10 16:17:13;;;;;;;25.98;18.52;;;;;;;17.32;67.11;98409.41;10414795;28;20530;-58
2022/10/10 16:22:12;;;;;;;;;;;;;;;17.12;67.75;98403.63;10389976;28;20039;-58
2022/10/10 16:27:11;;;;;;;31.07;19.37;;;;;;;17.00;68.52;98415.19;10378816;28;19923;-58
2022/10/10 16:32:10;;;;;;;;;;;;;;;16.87;69.51;98422.41;10395817;28;20475;-58
2022/10/10 16:37:09;;;;;;;31.37;23.27;;;;;;;16.73;70.19;98404.25;10418141;28;19924;-58
2022/10/10 16:42:08;;;;;;;;;;;;;;;16.56;71.39;98406.25;10417476;28;20024;-58
2022/10/10 16:47:06;;;;;;;32.13;23.50;;;;;;;16.35;72.31;98407.44;10417591;28;19959;-58
2022/10/10 16:52:05;;;;;;;;;;;;;;;16.20;73.46;98405.00;10417215;28;20025;-58
2022/10/10 16:57:04;;;;;;;30.80;21.05;;;;;;;15.97;74.41;98414.00;10415965;28;20405;-60
2022/10/10 17:02:03;;;;;;;;;;;;;;;15.82;75.15;98422.91;10417321;28;20107;-59
2022/10/10 17:07:02;;;;;;;35.50;29.40;;;;;;;15.67;75.64;98418.69;10415606;28;19913;-58
2022/10/10 17:12:01;;;;;;;;;;;;;;;15.56;76.58;98424.94;10417276;28;20032;-58
2022/10/10 17:16:59;;;;;;;38.85;32.55;;;;;;;15.42;76.92;98431.16;10416649;28;19920;-61
2022/10/10 17:21:58;;;;;;;;;;;;;;;15.29;77.78;98426.91;10417052;28;20123;-58
2022/10/10 17:26:57;;;;;;;34.25;27.15;;;;;;;15.11;78.00;98416.59;10417093;28;20034;-58
2022/10/10 17:31:56;;;;;;;;;;;;;;;15.03;78.53;98434.97;10416344;28;20407;-63
2022/10/10 17:36:55;;;;;;;35.45;27.58;;;;;;;14.91;79.03;98430.72;10416092;28;19915;-58
2022/10/10 17:41:54;;;;;;;29.52;24.63;;;;;;;14.58;79.90;98403.06;10414224;28;20874;-58
2022/10/10 17:46:53;;;;;;;40.10;31.48;;;;;;;14.57;80.46;98440.50;10415396;28;20067;-58
2022/10/10 17:51:52;;;;;;;36.55;28.63;;;;;;;14.45;81.06;98435.34;10415026;28;20107;-58
2022/10/10 17:56:51;;;;;;;38.08;28.33;;;;;;;14.24;81.24;98426.78;10415050;28;20024;-58
2022/10/10 18:01:50;;;;;;;40.15;28.67;;;;;;;14.19;81.82;98445.06;10415053;28;20492;-58
2022/10/10 18:06:49;;;;;;;52.53;32.78;;;;;;;14.08;82.42;98449.44;10414955;28;20032;-58
2022/10/10 18:11:48;;;;;;;33.83;26.55;;;;;;;13.95;82.69;98440.78;10413843;28;20522;-59
2022/10/10 18:16:47;;;;;;;38.75;27.05;;;;;;;13.81;83.13;98429.53;10413076;28;20532;-58
2022/10/10 18:21:47;;;;;;;33.95;27.65;;;;;;;13.83;83.37;98438.22;10413987;28;20097;-58
2022/10/10 18:26:46;;;;;;;36.38;29.92;;;;;;;13.77;84.21;98435.63;10412788;28;20476;-58
2022/10/10 18:31:45;;;;;;;41.00;29.95;;;;;;;13.69;84.54;98426.97;10414096;28;20470;-58
2022/10/10 18:36:44;;;;;;;42.47;33.53;;;;;;;13.65;85.34;98430.44;10414231;28;20032;-58
2022/10/10 18:41:44;;;;;;;41.83;32.53;;;;;;;13.60;85.32;98414.81;10413187;28;20101;-58
2022/10/10 18:46:45;;;;;;;33.28;27.17;;;;;;;13.51;85.50;98413.06;10412496;28;20059;-58
2022/10/10 18:51:44;;;;;;;44.00;30.65;;;;;;;13.48;85.95;98422.63;10413031;28;20079;-58
2022/10/10 18:56:44;;;;;;;38.40;30.20;;;;;;;13.42;86.13;98420.91;10412961;28;20094;-58
2022/10/10 19:01:45;;;;;;;55.38;40.45;;;;;;;13.32;87.23;98406.16;10413519;28;20533;-58
2022/10/10 19:06:44;;;;;;;55.55;42.42;;;;;;;13.23;87.52;98411.38;10412539;28;20067;-58
2022/10/10 19:11:48;;;;;;;55.13;41.35;;;;;;;13.19;87.39;98404.41;10412263;28;20083;-58
2022/10/10 19:16:47;;;;;;;56.05;40.85;;;;;;;13.18;87.55;98405.31;10410591;28;20087;-58
2022/10/10 19:21:48;;;;;;;57.00;44.00;;;;;;;13.19;87.89;98405.31;10412498;28;20071;-58
2022/10/10 19:26:53;;;;;;;64.30;49.22;;;;;;;13.18;88.14;98410.50;10412252;28;20068;-58
2022/10/10 19:31:53;;;;;;;43.15;33.88;;;;;;;13.12;88.38;98419.22;10411989;28;20076;-58
2022/10/10 19:36:52;;;;;;;40.90;30.40;;;;;;;13.02;88.58;98418.31;10417902;28;20064;-58
2022/10/10 19:41:51;;;;;;;30.02;24.25;;;;;;;12.97;88.38;98406.19;10413678;28;20082;-58
2022/10/10 19:46:50;;;;;;;35.53;27.52;;;;;;;12.90;88.64;98395.75;10420230;28;20032;-58
2022/10/10 19:51:52;;;;;;;41.53;30.08;;;;;;;12.85;88.86;98407.03;10391591;28;20033;-58
2022/10/10 19:56:51;;;;;;;46.13;35.05;;;;;;;12.79;88.99;98401.81;10418052;28;20071;-58
2022/10/10 20:01:49;;;;;;;66.10;52.60;;;;;;;12.65;89.96;98391.38;10418933;28;20048;-58
2022/10/10 20:06:48;;;;;;;68.63;53.60;;;;;;;12.56;90.65;98387.06;10418622;28;20039;-58
2022/10/10 20:11:47;;;;;;;69.55;53.90;;;;;;;12.53;91.00;98397.44;10418677;28;20370;-58
2022/10/10 20:16:46;;;;;;;57.78;46.03;;;;;;;12.44;91.70;98384.47;10418457;28;20091;-58
2022/10/10 20:21:45;;;;;;;60.38;46.47;;;;;;;12.33;92.48;98384.41;10418073;28;20392;-58
2022/10/10 20:26:44;;;;;;;50.50;41.20;;;;;;;12.34;92.45;98377.47;10419010;28;20496;-58
2022/10/10 20:31:43;;;;;;;50.13;40.67;;;;;;;12.34;92.50;98377.47;10418973;28;20032;-58
2022/10/10 20:36:42;;;;;;;49.08;38.70;;;;;;;12.27;92.38;98373.94;10418317;28;20028;-58
2022/10/10 20:41:42;;;;;;;50.50;38.53;;;;;;;12.17;93.38;98377.41;10418179;28;20060;-58
2022/10/10 20:46:42;;;;;;;;;;;;;;;12.10;93.69;98377.38;10418090;28;20487;-58
2022/10/10 20:51:41;;;;;;;45.83;36.78;;;;;;;12.10;93.56;98371.31;10418119;28;19955;-58
2022/10/10 20:56:39;;;;;;;;;;;;;;;12.08;93.39;98367.84;10418012;28;20072;-58
2022/10/10 21:01:38;;;;;;;47.28;35.15;;;;;;;12.04;93.13;98369.59;10417904;28;19915;-58
2022/10/10 21:06:38;;;;;;;48.45;36.95;;;;;;;12.02;93.36;98379.09;10417856;28;20411;-58
2022/10/10 21:11:38;;;;;;;46.78;35.75;;;;;;;11.88;93.47;98362.59;10419561;28;20068;-58
2022/10/10 21:16:39;;;;;;;49.78;36.28;;;;;;;11.87;93.97;98379.91;10420477;28;20040;-58
2022/10/10 21:21:38;;;;;;;48.83;35.05;;;;;;;11.80;93.66;98377.28;10420300;28;20052;-58
2022/10/10 21:26:39;;;;;;;41.33;33.50;;;;;;;11.79;94.12;98384.22;10420019;28;20411;-58
2022/10/10 21:31:38;;;;;;;45.03;33.50;;;;;;;11.77;93.68;98372.94;10419615;28;20060;-58
2022/10/10 21:36:38;;;;;;;48.13;36.63;;;;;;;11.78;93.93;98372.09;10419653;28;20064;-58
2022/10/10 21:41:37;;;;;;;44.88;35.03;;;;;;;11.76;93.98;98371.22;10419619;28;20025;-58
2022/10/10 21:46:36;;;;;;;46.25;34.55;;;;;;;11.76;94.47;98371.22;10419472;28;20044;-58
2022/10/10 21:51:37;;;;;;;;;;;;;;;11.77;94.26;98367.75;10419597;28;20538;-58
2022/10/10 21:56:36;;;;;;;50.70;36.80;;;;;;;11.77;94.27;98372.06;10418795;28;19986;-58
2022/10/10 22:01:36;;;;;;;50.22;37.08;;;;;;;11.77;94.36;98362.53;10417350;28;20064;-58
2022/10/10 22:06:35;;;;;;;52.72;39.28;;;;;;;11.69;94.33;98356.47;10416774;28;20068;-58
2022/10/10 22:11:34;;;;;;;53.00;37.95;;;;;;;11.67;95.32;98360.78;10412326;28;20102;-58
2022/10/10 22:16:34;;;;;;;51.60;39.80;;;;;;;11.67;95.30;98350.38;10411107;28;20084;-58
2022/10/10 22:21:33;;;;;;;52.63;40.10;;;;;;;11.63;95.42;98338.22;10412304;28;20521;-58
2022/10/10 22:26:33;;;;;;;48.88;39.53;;;;;;;11.37;95.34;98307.78;10414792;28;20470;-58
2022/10/10 22:31:36;;;;;;;44.63;37.38;;;;;;;11.57;95.38;98338.19;10414430;28;20082;-58
2022/10/10 22:36:35;;;;;;;51.88;39.05;;;;;;;11.58;95.24;98342.53;10413382;28;20068;-58
2022/10/10 22:41:34;;;;;;;49.22;38.17;;;;;;;11.54;95.43;98332.97;10413667;28;20064;-58
2022/10/10 22:46:33;;;;;;;44.78;34.38;;;;;;;11.41;96.47;98322.53;10413470;28;20033;-58
2022/10/10 22:51:32;;;;;;;38.90;30.40;;;;;;;11.41;96.44;98325.13;10413295;28;20028;-58
2022/10/10 22:56:31;;;;;;;36.15;29.75;;;;;;;11.41;95.92;98325.13;10412901;28;20079;-58
2022/10/10 23:01:30;;;;;;;39.75;31.48;;;;;;;11.45;96.03;98319.09;10413032;28;20076;-58
2022/10/10 23:06:29;;;;;;;44.67;33.03;;;;;;;11.44;96.21;98327.75;10413322;28;20472;-58
2022/10/10 23:11:28;;;;;;;44.67;31.80;;;;;;;11.28;97.26;98330.25;10413056;28;20504;-58